createdAt,value
2022-08-03T00:01:54.229Z,28.00
2022-08-03T00:04:01.655Z,28.00
2022-08-03T00:06:07.026Z,28.10
2022-08-03T00:08:11.450Z,28.10
2022-08-03T00:10:19.018Z,28.20
2022-08-03T00:12:23.580Z,28.20
2022-08-03T00:14:30.148Z,28.30
2022-08-03T00:16:35.900Z,28.30
2022-08-03T00:18:41.116Z,28.40
2022-08-03T00:20:47.511Z,28.50
2022-08-03T00:22:54.665Z,28.60
2022-08-03T00:24:59.022Z,28.60
2022-08-03T00:27:05.800Z,28.70
2022-08-03T00:29:14.766Z,28.80
2022-08-03T00:31:24.881Z,28.90
2022-08-03T00:33:59.659Z,28.90
2022-08-03T00:36:10.206Z,29.10
2022-08-03T00:38:14.553Z,29.20
2022-08-03T00:40:21.436Z,29.40
2022-08-03T00:42:28.452Z,29.40
2022-08-03T00:44:33.641Z,29.50
2022-08-03T00:46:40.217Z,29.60
2022-08-03T00:48:45.925Z,29.60
2022-08-03T00:50:50.383Z,29.60
2022-08-03T00:53:00.846Z,29.60
2022-08-03T00:55:08.232Z,29.60
2022-08-03T00:57:12.779Z,29.60
2022-08-03T00:59:18.140Z,29.60
2022-08-03T01:01:22.838Z,29.50
2022-08-03T01:03:27.479Z,29.50
2022-08-03T01:05:36.401Z,29.40
2022-08-03T01:08:00.872Z,29.40
2022-08-03T01:10:15.107Z,29.40
2022-08-03T01:12:34.232Z,29.40
2022-08-03T01:15:02.062Z,29.40
2022-08-03T01:17:37.023Z,29.40
2022-08-03T01:20:14.150Z,29.50
2022-08-03T01:22:51.150Z,29.70
2022-08-03T01:25:12.060Z,29.70
2022-08-03T01:27:33.298Z,29.70
2022-08-03T01:29:54.299Z,29.60
2022-08-03T01:32:52.391Z,29.60
2022-08-03T01:34:59.030Z,29.60
2022-08-03T01:37:05.383Z,29.60
2022-08-03T01:39:10.535Z,29.80
2022-08-03T01:41:21.281Z,29.90
2022-08-03T01:44:27.892Z,29.90
2022-08-03T01:45:56.649Z,29.90
2022-08-03T01:48:01.415Z,29.90
2022-08-03T01:50:07.945Z,29.90
2022-08-03T01:52:12.618Z,29.90
2022-08-03T01:54:19.130Z,29.90
2022-08-03T01:56:26.054Z,30.00
2022-08-03T01:58:31.216Z,30.10
2022-08-03T02:00:37.889Z,30.20
2022-08-03T02:02:45.225Z,30.20
2022-08-03T02:04:50.099Z,30.20
2022-08-03T02:07:01.077Z,30.10
2022-08-03T02:09:09.343Z,30.20
2022-08-03T02:11:14.412Z,30.30
2022-08-03T02:13:21.071Z,30.40
2022-08-03T02:15:25.827Z,30.40
2022-08-03T02:17:39.058Z,30.50
2022-08-03T02:19:47.189Z,30.50
2022-08-03T02:21:57.387Z,30.60
2022-08-03T02:24:06.803Z,30.60
2022-08-03T02:26:14.848Z,30.60
2022-08-03T02:28:22.004Z,30.60
2022-08-03T02:30:35.014Z,30.70
2022-08-03T02:32:44.467Z,30.70
2022-08-03T02:34:51.907Z,30.80
2022-08-03T02:36:56.675Z,30.70
2022-08-03T02:39:04.367Z,30.60
2022-08-03T02:41:15.423Z,30.60
2022-08-03T02:43:21.597Z,30.50
2022-08-03T02:45:27.892Z,30.60
2022-08-03T02:47:53.828Z,30.60
2022-08-03T02:50:00.934Z,30.50
2022-08-03T02:52:07.451Z,30.50
2022-08-03T02:54:19.742Z,30.50
2022-08-03T02:56:25.357Z,30.60
2022-08-03T02:58:32.061Z,30.80
2022-08-03T03:00:39.045Z,30.90
2022-08-03T03:02:43.958Z,31.10
2022-08-03T03:04:58.861Z,31.20
2022-08-03T03:07:17.466Z,31.30
2022-08-03T03:09:22.144Z,31.40
2022-08-03T03:11:28.695Z,31.60
2022-08-03T03:13:35.422Z,31.50
2022-08-03T03:15:40.449Z,31.40
2022-08-03T03:17:47.326Z,31.50
2022-08-03T03:19:53.816Z,31.70
2022-08-03T03:21:58.531Z,31.60
2022-08-03T03:24:05.316Z,31.70
2022-08-03T03:26:10.138Z,31.70
2022-08-03T03:28:14.620Z,31.80
2022-08-03T03:30:21.124Z,32.00
2022-08-03T03:32:29.676Z,32.10
2022-08-03T03:34:34.958Z,32.10
2022-08-03T03:36:41.925Z,32.10
2022-08-03T03:38:46.501Z,32.00
2022-08-03T03:40:50.953Z,31.90
2022-08-03T03:42:57.741Z,31.80
2022-08-03T03:45:07.654Z,31.80
2022-08-03T03:47:12.482Z,31.80
2022-08-03T03:49:17.842Z,32.00
2022-08-03T03:51:24.355Z,32.10
2022-08-03T03:53:30.370Z,32.30
2022-08-03T03:55:37.552Z,32.50
2022-08-03T03:58:05.193Z,32.60
2022-08-03T04:00:10.652Z,32.40
2022-08-03T04:02:17.938Z,32.30
2022-08-03T04:04:36.828Z,32.20
2022-08-03T04:06:53.603Z,32.10
2022-08-03T04:09:12.595Z,32.00
2022-08-03T04:11:29.242Z,32.00
2022-08-03T04:13:49.206Z,32.00
2022-08-03T04:15:54.970Z,32.20
2022-08-03T04:18:01.745Z,32.40
2022-08-03T04:20:06.708Z,32.60
2022-08-03T04:22:17.908Z,32.80
2022-08-03T04:24:26.659Z,33.00
2022-08-03T04:26:34.487Z,32.90
2022-08-03T04:28:43.066Z,32.70
2022-08-03T04:30:51.831Z,32.60
2022-08-03T04:32:59.760Z,32.60
2022-08-03T04:35:06.851Z,32.50
2022-08-03T04:37:14.028Z,32.30
2022-08-03T04:39:27.649Z,32.10
2022-08-03T04:42:08.384Z,32.10
2022-08-03T04:44:01.778Z,32.10
2022-08-03T04:46:06.189Z,32.40
2022-08-03T04:48:10.956Z,32.70
2022-08-03T04:50:21.313Z,33.00
2022-08-03T04:52:41.537Z,33.10
2022-08-03T04:54:50.932Z,33.30
2022-08-03T04:56:57.392Z,33.40
2022-08-03T04:59:02.185Z,33.60
2022-08-03T05:01:09.420Z,33.60
2022-08-03T05:03:20.445Z,33.70
2022-08-03T05:05:36.237Z,33.60
2022-08-03T05:07:56.188Z,33.50
2022-08-03T05:10:03.466Z,33.40
2022-08-03T05:12:08.687Z,33.40
2022-08-03T05:14:20.099Z,33.40
2022-08-03T05:16:34.855Z,33.30
2022-08-03T05:18:39.581Z,33.20
2022-08-03T05:20:46.669Z,33.20
2022-08-03T05:22:53.024Z,33.00
2022-08-03T05:24:57.760Z,33.00
2022-08-03T05:27:02.274Z,33.00
2022-08-03T05:29:08.711Z,32.90
2022-08-03T05:31:14.498Z,33.00
2022-08-03T05:33:23.138Z,32.90
2022-08-03T05:36:00.848Z,33.00
2022-08-03T05:37:55.038Z,33.10
2022-08-03T05:40:01.689Z,33.00
2022-08-03T05:42:08.087Z,33.10
2022-08-03T05:44:12.849Z,33.40
2022-08-03T05:46:19.353Z,33.60
2022-08-03T05:48:26.476Z,33.70
2022-08-03T05:50:31.019Z,33.60
2022-08-03T05:52:38.277Z,33.40
2022-08-03T05:54:56.043Z,33.30
2022-08-03T05:57:02.431Z,33.30
2022-08-03T05:59:35.706Z,33.20
2022-08-03T06:01:34.601Z,33.10
2022-08-03T06:03:39.096Z,33.10
2022-08-03T06:06:00.582Z,33.10
2022-08-03T06:08:05.811Z,33.20
2022-08-03T06:10:36.502Z,33.20
2022-08-03T06:12:40.715Z,33.20
2022-08-03T06:14:47.414Z,33.10
2022-08-03T06:16:51.943Z,33.20
2022-08-03T06:18:58.947Z,33.20
2022-08-03T06:21:14.633Z,33.30
2022-08-03T06:23:20.538Z,33.30
2022-08-03T06:25:29.259Z,33.20
2022-08-03T06:27:37.077Z,33.10
2022-08-03T06:29:42.407Z,33.10
2022-08-03T06:31:49.173Z,33.10
2022-08-03T06:34:33.567Z,33.10
2022-08-03T06:36:20.163Z,33.00
2022-08-03T06:38:25.851Z,33.00
2022-08-03T06:40:32.559Z,32.90
2022-08-03T06:42:37.046Z,32.90
2022-08-03T06:44:44.737Z,32.90
2022-08-03T06:46:52.253Z,33.00
2022-08-03T06:48:57.723Z,33.20
2022-08-03T06:51:04.413Z,33.50
2022-08-03T06:53:19.687Z,33.50
2022-08-03T06:55:26.303Z,33.40
2022-08-03T06:57:33.157Z,33.20
2022-08-03T07:00:08.022Z,33.10
2022-08-03T07:02:04.741Z,33.10
2022-08-03T07:04:12.926Z,33.00
2022-08-03T07:06:20.106Z,33.20
2022-08-03T07:08:34.272Z,33.50
2022-08-03T07:10:41.621Z,33.90
2022-08-03T07:12:56.032Z,34.10
2022-08-03T07:15:02.907Z,33.80
2022-08-03T07:17:11.791Z,33.60
2022-08-03T07:19:16.689Z,33.60
2022-08-03T07:21:21.577Z,33.60
2022-08-03T07:23:28.735Z,33.50
2022-08-03T07:25:35.419Z,33.60
2022-08-03T07:27:40.770Z,33.60
2022-08-03T07:29:48.104Z,34.00
2022-08-03T07:31:54.489Z,34.30
2022-08-03T07:34:01.506Z,34.40
2022-08-03T07:36:08.633Z,34.30
2022-08-03T07:38:15.001Z,34.10
2022-08-03T07:40:19.745Z,34.20
2022-08-03T07:42:27.716Z,34.10
2022-08-03T07:44:34.187Z,34.10
2022-08-03T07:46:38.650Z,34.20
2022-08-03T07:48:43.379Z,34.40
2022-08-03T07:50:47.897Z,34.40
2022-08-03T07:52:57.128Z,34.50
2022-08-03T07:55:01.982Z,34.50
2022-08-03T07:57:08.508Z,34.40
2022-08-03T07:59:13.486Z,34.30
2022-08-03T08:01:20.347Z,34.20
2022-08-03T08:03:27.751Z,34.00
2022-08-03T08:05:52.119Z,33.70
2022-08-03T08:07:57.822Z,33.50
2022-08-03T08:10:05.208Z,33.30
2022-08-03T08:12:15.028Z,32.80
2022-08-03T08:14:22.573Z,32.70
2022-08-03T08:16:28.948Z,32.60
2022-08-03T08:18:33.649Z,32.80
2022-08-03T08:20:43.483Z,32.90
2022-08-03T08:22:51.576Z,32.90
2022-08-03T08:24:56.617Z,32.90
2022-08-03T08:27:02.622Z,33.00
2022-08-03T08:29:09.118Z,32.90
2022-08-03T08:31:13.634Z,32.90
2022-08-03T08:33:22.762Z,33.00
2022-08-03T08:35:32.052Z,33.10
2022-08-03T08:37:36.650Z,33.00
2022-08-03T08:39:43.977Z,33.00
2022-08-03T08:41:54.031Z,32.70
2022-08-03T08:44:01.264Z,32.90
2022-08-03T08:46:09.172Z,33.00
2022-08-03T08:48:17.626Z,33.20
2022-08-03T08:50:27.501Z,33.00
2022-08-03T08:52:35.113Z,32.80
2022-08-03T08:54:39.955Z,32.90
2022-08-03T08:56:47.104Z,33.00
2022-08-03T08:59:00.284Z,33.00
2022-08-03T09:01:06.869Z,33.00
2022-08-03T09:03:11.626Z,32.90
2022-08-03T09:05:54.897Z,32.80
2022-08-03T09:07:55.558Z,32.50
2022-08-03T09:10:11.194Z,32.50
2022-08-03T09:12:40.911Z,32.60
2022-08-03T09:15:07.326Z,32.60
2022-08-03T09:17:17.426Z,32.70
2022-08-03T09:19:24.136Z,32.70
2022-08-03T09:21:32.536Z,32.70
2022-08-03T09:24:02.340Z,32.70
2022-08-03T09:26:10.449Z,32.70
2022-08-03T09:28:57.226Z,32.70
2022-08-03T09:30:59.430Z,32.60
2022-08-03T09:33:27.478Z,32.70
2022-08-03T09:35:57.477Z,32.70
2022-08-03T09:38:27.150Z,32.70
2022-08-03T09:40:40.086Z,32.80
2022-08-03T09:42:57.945Z,32.80
2022-08-03T09:45:02.811Z,32.80
2022-08-03T09:47:10.054Z,32.70
2022-08-03T09:49:14.788Z,32.60
2022-08-03T09:52:11.037Z,32.60
2022-08-03T09:53:58.948Z,32.60
2022-08-03T09:56:33.621Z,32.60
2022-08-03T09:58:31.774Z,32.60
2022-08-03T10:00:52.714Z,32.40
2022-08-03T10:03:05.970Z,32.30
2022-08-03T10:05:19.774Z,32.20
2022-08-03T10:07:28.569Z,32.10
2022-08-03T10:09:33.484Z,31.80
2022-08-03T10:11:41.724Z,31.80
2022-08-03T10:13:50.972Z,31.60
2022-08-03T10:16:22.695Z,31.50
2022-08-03T10:18:29.516Z,31.50
2022-08-03T10:20:38.094Z,31.50
2022-08-03T10:22:42.673Z,31.50
2022-08-03T10:24:55.418Z,31.50
2022-08-03T10:27:06.068Z,31.40
2022-08-03T10:29:14.543Z,30.80
2022-08-03T10:31:18.964Z,30.50
2022-08-03T10:33:49.483Z,30.10
2022-08-03T10:35:59.545Z,29.80
2022-08-03T10:38:07.865Z,29.40
2022-08-03T10:40:39.574Z,29.30
2022-08-03T10:42:42.158Z,29.00
2022-08-03T10:44:46.667Z,28.90
2022-08-03T10:46:55.188Z,29.10
2022-08-03T10:48:59.883Z,29.10
2022-08-03T10:51:04.533Z,29.00
2022-08-03T10:53:14.730Z,28.30
2022-08-03T10:55:54.360Z,27.70
2022-08-03T10:57:59.454Z,26.70
2022-08-03T11:00:07.853Z,27.00
2022-08-03T11:02:14.870Z,27.40
2022-08-03T11:04:21.043Z,27.90
2022-08-03T11:06:37.496Z,28.40
2022-08-03T11:08:42.299Z,28.60
2022-08-03T11:10:47.227Z,28.70
2022-08-03T11:12:55.698Z,28.60
2022-08-03T11:15:10.675Z,28.70
2022-08-03T11:17:15.229Z,28.80
2022-08-03T11:19:29.149Z,28.90
2022-08-03T11:21:55.841Z,29.10
2022-08-03T11:24:05.046Z,28.90
2022-08-03T11:26:20.681Z,28.90
2022-08-03T11:28:30.623Z,28.90
2022-08-03T11:30:35.390Z,29.00
2022-08-03T11:33:02.575Z,29.10
2022-08-03T11:35:28.223Z,29.00
2022-08-03T11:37:34.714Z,29.10
2022-08-03T11:39:49.116Z,29.20
2022-08-03T11:41:53.857Z,29.20
2022-08-03T11:43:58.366Z,29.20
2022-08-03T11:46:28.398Z,29.20
2022-08-03T11:48:44.251Z,29.20
2022-08-03T11:50:48.684Z,29.20
2022-08-03T11:52:57.313Z,29.20
2022-08-03T11:55:01.881Z,29.20
2022-08-03T11:57:18.644Z,29.20
2022-08-03T11:59:45.352Z,29.20
2022-08-03T12:01:49.953Z,29.10
2022-08-03T12:03:54.507Z,29.10
2022-08-03T12:05:59.083Z,29.00
2022-08-03T12:08:06.640Z,29.00
2022-08-03T12:10:14.456Z,29.00
2022-08-03T12:12:23.246Z,29.00
2022-08-03T12:14:50.918Z,29.00
2022-08-03T12:16:56.060Z,29.00
2022-08-03T12:19:11.458Z,28.90
2022-08-03T12:21:16.005Z,29.00
2022-08-03T12:23:21.473Z,29.00
2022-08-03T12:25:39.373Z,28.90
2022-08-03T12:27:44.701Z,28.90
2022-08-03T12:29:58.470Z,28.90
2022-08-03T12:32:03.884Z,28.90
2022-08-03T12:34:10.205Z,28.90
2022-08-03T12:36:14.864Z,28.90
2022-08-03T12:38:25.519Z,28.90
2022-08-03T12:40:31.886Z,28.90
2022-08-03T12:42:37.546Z,28.90
2022-08-03T12:44:46.134Z,28.90
2022-08-03T12:46:58.495Z,28.80
2022-08-03T12:49:08.518Z,28.80
2022-08-03T12:51:15.040Z,28.80
2022-08-03T12:53:29.413Z,28.80
2022-08-03T12:55:57.433Z,28.80
2022-08-03T12:58:02.143Z,28.90
2022-08-03T13:00:21.742Z,28.80
2022-08-03T13:02:34.596Z,28.80
2022-08-03T13:04:43.403Z,28.80
2022-08-03T13:07:02.671Z,28.80
2022-08-03T13:09:08.649Z,28.80
2022-08-03T13:11:53.648Z,28.80
2022-08-03T13:13:51.721Z,28.80
2022-08-03T13:15:56.523Z,28.80
2022-08-03T13:18:08.860Z,28.80
2022-08-03T13:20:13.703Z,28.80
2022-08-03T13:22:23.531Z,28.80
2022-08-03T13:24:32.691Z,28.70
2022-08-03T13:26:37.607Z,28.60
2022-08-03T13:28:42.186Z,28.60
2022-08-03T13:30:49.164Z,28.70
2022-08-03T13:32:53.671Z,28.70
2022-08-03T13:34:58.449Z,28.60
2022-08-03T13:37:09.351Z,28.60
2022-08-03T13:39:17.302Z,28.60
2022-08-03T13:41:31.140Z,28.60
2022-08-03T13:43:40.303Z,28.60
2022-08-03T13:45:50.279Z,28.60
2022-08-03T13:47:57.800Z,28.70
2022-08-03T13:50:03.129Z,28.60
2022-08-03T13:52:07.904Z,28.60
2022-08-03T13:54:12.763Z,28.60
2022-08-03T13:56:21.321Z,28.70
2022-08-03T13:58:26.344Z,28.70
2022-08-03T14:00:30.830Z,28.50
2022-08-03T14:02:37.366Z,28.50
2022-08-03T14:04:41.898Z,28.60
2022-08-03T14:06:46.737Z,28.60
2022-08-03T14:08:59.015Z,28.60
2022-08-03T14:11:05.511Z,28.60
2022-08-03T14:13:10.380Z,28.60
2022-08-03T14:15:18.019Z,28.60
2022-08-03T14:17:23.883Z,28.60
2022-08-03T14:19:28.342Z,28.50
2022-08-03T14:21:34.974Z,28.50
2022-08-03T14:23:40.190Z,28.50
2022-08-03T14:25:51.975Z,28.50
2022-08-03T14:28:01.626Z,28.50
2022-08-03T14:30:06.850Z,28.50
2022-08-03T14:32:13.440Z,28.50
2022-08-03T14:34:20.167Z,28.50
2022-08-03T14:36:24.495Z,28.50
2022-08-03T14:38:29.134Z,28.50
2022-08-03T14:40:36.177Z,28.60
2022-08-03T14:42:40.784Z,28.50
2022-08-03T14:44:45.699Z,28.40
2022-08-03T14:46:52.640Z,28.40
2022-08-03T14:50:27.989Z,28.50
2022-08-03T14:51:24.344Z,28.50
2022-08-03T14:53:30.056Z,28.40
2022-08-03T14:55:38.813Z,28.40
2022-08-03T14:57:54.866Z,28.50
2022-08-03T15:00:02.140Z,28.50
2022-08-03T15:02:14.806Z,28.40
2022-08-03T15:04:25.999Z,28.40
2022-08-03T15:06:30.750Z,28.40
2022-08-03T15:08:37.093Z,28.40
2022-08-03T15:10:45.438Z,28.40
2022-08-03T15:12:52.328Z,28.40
2022-08-03T15:14:59.072Z,28.40
2022-08-03T15:17:03.459Z,28.40
2022-08-03T15:20:03.088Z,28.40
2022-08-03T15:21:46.932Z,28.30
2022-08-03T15:23:52.696Z,28.40
2022-08-03T15:26:29.208Z,28.40
2022-08-03T15:28:25.509Z,28.30
2022-08-03T15:30:30.099Z,28.30
2022-08-03T15:32:36.980Z,28.30
2022-08-03T15:34:50.412Z,28.30
2022-08-03T15:36:55.124Z,28.30
2022-08-03T15:39:02.418Z,28.30
2022-08-03T15:41:13.543Z,28.40
2022-08-03T15:43:18.732Z,28.40
2022-08-03T15:45:25.582Z,28.30
2022-08-03T15:47:34.976Z,28.40
2022-08-03T15:49:39.354Z,28.40
2022-08-03T15:51:45.155Z,28.30
2022-08-03T15:53:51.679Z,28.40
2022-08-03T15:55:56.191Z,28.40
2022-08-03T15:59:04.118Z,28.40
2022-08-03T16:00:33.314Z,28.30
2022-08-03T16:02:39.029Z,28.30
2022-08-03T16:04:45.526Z,28.40
2022-08-03T16:06:50.481Z,28.30
2022-08-03T16:08:54.840Z,28.30
2022-08-03T16:11:01.998Z,28.30
2022-08-03T16:13:06.404Z,28.40
2022-08-03T16:15:11.870Z,28.30
2022-08-03T16:17:18.728Z,28.20
2022-08-03T16:19:25.404Z,28.20
2022-08-03T16:21:29.861Z,28.20
2022-08-03T16:23:44.977Z,28.20
2022-08-03T16:25:53.848Z,28.20
2022-08-03T16:28:07.804Z,28.20
2022-08-03T16:30:19.964Z,28.30
2022-08-03T16:32:26.219Z,28.20
2022-08-03T16:34:31.180Z,28.30
2022-08-03T16:36:36.887Z,28.30
2022-08-03T16:38:43.386Z,28.20
2022-08-03T16:40:52.831Z,28.20
2022-08-03T16:43:02.266Z,28.20
2022-08-03T16:45:09.099Z,28.20
2022-08-03T16:47:22.460Z,28.20
2022-08-03T16:49:53.957Z,28.20
2022-08-03T16:51:53.308Z,28.20
2022-08-03T16:54:07.916Z,28.20
2022-08-03T16:56:18.950Z,28.20
2022-08-03T16:58:41.511Z,28.10
2022-08-03T17:00:47.614Z,28.10
2022-08-03T17:02:57.877Z,28.10
2022-08-03T17:05:04.325Z,28.10
2022-08-03T17:07:09.185Z,28.10
2022-08-03T17:09:18.569Z,28.10
2022-08-03T17:11:24.920Z,28.10
2022-08-03T17:13:38.963Z,28.00
2022-08-03T17:16:01.408Z,28.00
2022-08-03T17:18:09.333Z,28.00
2022-08-03T17:20:15.782Z,28.00
2022-08-03T17:22:26.394Z,27.90
2022-08-03T17:24:34.578Z,27.90
2022-08-03T17:26:44.719Z,27.70
2022-08-03T17:28:57.512Z,27.70
2022-08-03T17:31:22.891Z,27.70
2022-08-03T17:33:36.185Z,27.60
2022-08-03T17:35:40.898Z,27.60
2022-08-03T17:37:58.538Z,27.60
2022-08-03T17:40:08.721Z,27.30
2022-08-03T17:42:29.066Z,27.40
2022-08-03T17:44:46.323Z,27.40
2022-08-03T17:46:52.458Z,27.40
2022-08-03T17:48:59.903Z,27.50
2022-08-03T17:51:15.408Z,27.50
2022-08-03T17:53:25.350Z,27.40
2022-08-03T17:55:56.628Z,27.40
2022-08-03T17:58:07.231Z,27.40
2022-08-03T18:00:35.551Z,27.30
2022-08-03T18:03:15.533Z,27.40
2022-08-03T18:05:22.858Z,27.30
2022-08-03T18:07:59.389Z,27.40
2022-08-03T18:10:11.354Z,27.40
2022-08-03T18:12:28.248Z,27.40
2022-08-03T18:14:57.130Z,27.40
2022-08-03T18:17:10.512Z,27.40
2022-08-03T18:19:18.270Z,27.40
2022-08-03T18:22:02.259Z,27.30
2022-08-03T18:23:53.917Z,27.30
2022-08-03T18:26:11.943Z,27.20
2022-08-03T18:28:23.155Z,27.10
2022-08-03T18:30:28.333Z,27.20
2022-08-03T18:32:35.525Z,27.20
2022-08-03T18:34:53.761Z,27.30
2022-08-03T18:36:59.771Z,27.30
2022-08-03T18:39:06.327Z,27.30
2022-08-03T18:41:17.153Z,27.30
2022-08-03T18:43:46.205Z,27.40
2022-08-03T18:45:57.393Z,27.30
2022-08-03T18:48:08.624Z,27.30
2022-08-03T18:50:31.297Z,27.40
2022-08-03T18:53:11.455Z,27.30
2022-08-03T18:55:33.202Z,27.30
2022-08-03T18:57:51.933Z,27.30
2022-08-03T19:03:02.921Z,27.20
2022-08-03T19:05:11.430Z,27.20
2022-08-03T19:07:23.238Z,27.20
2022-08-03T19:09:42.699Z,27.30
2022-08-03T19:12:14.214Z,27.30
2022-08-03T19:14:16.439Z,27.20
2022-08-03T19:16:34.330Z,27.10
2022-08-03T19:18:39.665Z,27.10
2022-08-03T19:20:47.288Z,27.20
2022-08-03T19:22:52.853Z,27.20
2022-08-03T19:24:58.928Z,27.10
2022-08-03T19:27:06.674Z,27.10
2022-08-03T19:29:18.877Z,27.00
2022-08-03T19:31:30.918Z,27.00
2022-08-03T19:33:55.830Z,27.00
2022-08-03T19:36:06.057Z,27.00
2022-08-03T19:38:17.236Z,26.90
2022-08-03T19:40:36.501Z,26.90
2022-08-03T19:42:48.988Z,26.90
2022-08-03T19:44:57.551Z,27.10
2022-08-03T19:47:08.916Z,27.10
2022-08-03T19:49:18.684Z,27.00
2022-08-03T19:51:58.572Z,27.10
2022-08-03T19:53:51.416Z,27.00
2022-08-03T19:55:58.288Z,26.90
2022-08-03T19:58:03.174Z,27.00
2022-08-03T20:00:12.276Z,27.00
2022-08-03T20:02:26.654Z,27.00
2022-08-03T20:04:33.090Z,26.90
2022-08-03T20:06:39.609Z,27.00
2022-08-03T20:08:48.141Z,27.00
2022-08-03T20:10:56.459Z,27.00
2022-08-03T20:13:03.999Z,26.90
2022-08-03T20:15:11.804Z,26.90
2022-08-03T20:17:21.162Z,27.00
2022-08-03T20:19:32.468Z,27.10
2022-08-03T20:21:37.571Z,27.10
2022-08-03T20:23:58.070Z,27.10
2022-08-03T20:26:09.930Z,27.00
2022-08-03T20:28:16.361Z,27.00
2022-08-03T20:30:26.403Z,27.00
2022-08-03T20:32:34.247Z,27.00
2022-08-03T20:34:41.513Z,27.00
2022-08-03T20:36:48.118Z,27.00
2022-08-03T20:38:58.347Z,27.00
2022-08-03T20:41:05.567Z,27.00
2022-08-03T20:43:11.489Z,27.00
2022-08-03T20:46:00.734Z,27.00
2022-08-03T20:47:59.814Z,27.00
2022-08-03T20:50:07.886Z,27.00
2022-08-03T20:52:18.386Z,27.10
2022-08-03T20:54:30.810Z,27.10
2022-08-03T20:56:37.475Z,27.10
2022-08-03T20:58:50.233Z,27.00
2022-08-03T21:00:58.603Z,27.00
2022-08-03T21:03:05.374Z,27.00
2022-08-03T21:05:16.378Z,27.00
2022-08-03T21:07:45.991Z,27.00
2022-08-03T21:09:57.043Z,27.00
2022-08-03T21:12:05.141Z,27.10
2022-08-03T21:13:09.823Z,27.30
2022-08-03T21:14:15.377Z,27.00
2022-08-03T21:16:23.250Z,27.00
2022-08-03T21:18:32.495Z,27.00
2022-08-03T21:20:39.427Z,27.00
2022-08-03T21:22:50.898Z,26.90
2022-08-03T21:24:57.554Z,26.90
2022-08-03T21:27:05.116Z,27.00
2022-08-03T21:29:10.376Z,26.90
2022-08-03T21:31:24.789Z,26.90
2022-08-03T21:33:33.185Z,27.00
2022-08-03T21:35:38.172Z,27.00
2022-08-03T21:37:48.228Z,27.00
2022-08-03T21:39:55.785Z,26.90
2022-08-03T21:42:01.010Z,26.90
2022-08-03T21:44:09.449Z,26.90
2022-08-03T21:46:16.575Z,26.90
2022-08-03T21:48:23.747Z,26.90
2022-08-03T21:50:30.678Z,26.90
2022-08-03T21:52:42.666Z,26.90
2022-08-03T21:54:47.516Z,26.90
2022-08-03T21:56:55.269Z,26.90
2022-08-03T21:59:06.818Z,26.90
2022-08-03T22:01:12.542Z,26.90
2022-08-03T22:03:17.916Z,26.90
2022-08-03T22:05:42.353Z,26.80
2022-08-03T22:07:49.245Z,26.80
2022-08-03T22:09:54.425Z,26.70
2022-08-03T22:12:01.594Z,26.80
2022-08-03T22:14:06.713Z,26.80
2022-08-03T22:16:13.357Z,26.70
2022-08-03T22:18:20.500Z,26.80
2022-08-03T22:20:26.529Z,26.80
2022-08-03T22:22:31.151Z,26.80
2022-08-03T22:24:37.716Z,26.80
2022-08-03T22:26:42.191Z,26.80
2022-08-03T22:28:49.315Z,26.80
2022-08-03T22:30:55.707Z,26.70
2022-08-03T22:33:00.554Z,26.70
2022-08-03T22:35:09.381Z,26.80
2022-08-03T22:37:17.161Z,26.80
2022-08-03T22:39:26.025Z,26.80
2022-08-03T22:41:35.483Z,26.80
2022-08-03T22:43:44.842Z,26.70
2022-08-03T22:46:09.578Z,26.70
2022-08-03T22:48:16.972Z,26.60
2022-08-03T22:50:31.211Z,26.60
2022-08-03T22:52:41.148Z,26.70
2022-08-03T22:54:48.050Z,26.70
2022-08-03T22:56:52.961Z,26.70
2022-08-03T22:58:57.939Z,26.70
2022-08-03T23:01:11.898Z,26.70
2022-08-03T23:03:18.519Z,26.70
2022-08-03T23:06:00.990Z,26.80
2022-08-03T23:07:53.849Z,26.70
2022-08-03T23:10:00.165Z,26.80
2022-08-03T23:12:05.225Z,26.80
2022-08-03T23:14:15.708Z,26.80
2022-08-03T23:16:29.298Z,26.80
2022-08-03T23:18:37.378Z,26.80
2022-08-03T23:20:42.254Z,26.80
2022-08-03T23:22:50.991Z,26.80
2022-08-03T23:24:56.665Z,26.90
2022-08-03T23:27:03.516Z,26.90
2022-08-03T23:29:10.095Z,26.90
2022-08-03T23:31:19.819Z,26.90
2022-08-03T23:33:26.395Z,26.90
2022-08-03T23:36:20.118Z,26.90
2022-08-03T23:38:21.942Z,27.00
2022-08-03T23:40:34.988Z,26.90
2022-08-03T23:42:42.984Z,26.90
2022-08-03T23:44:53.304Z,27.00
2022-08-03T23:46:58.842Z,27.00
2022-08-03T23:49:03.271Z,27.10
2022-08-03T23:51:11.920Z,27.10
2022-08-03T23:53:29.395Z,27.10
2022-08-03T23:56:07.171Z,27.20
2022-08-03T23:58:43.447Z,27.20
